createdAt,value
2018-09-01T00:00:52.240Z,13.31
2018-09-01T00:01:52.791Z,13.38
2018-09-01T00:02:52.157Z,13.28
2018-09-01T00:03:52.084Z,13.22
2018-09-01T00:04:52.036Z,13.18
2018-09-01T00:05:51.993Z,13.18
2018-09-01T00:06:51.938Z,13.15
2018-09-01T00:07:51.915Z,13.04
2018-09-01T00:08:51.839Z,13.01
2018-09-01T00:09:51.796Z,13.05
2018-09-01T00:10:51.740Z,12.91
2018-09-01T00:11:51.719Z,12.94
2018-09-01T00:12:51.644Z,12.95
2018-09-01T00:13:52.272Z,12.90
2018-09-01T00:14:51.549Z,12.82
2018-09-01T00:15:51.499Z,12.83
2018-09-01T00:16:51.472Z,12.82
2018-09-01T00:17:51.399Z,12.75
2018-09-01T00:18:51.351Z,12.67
2018-09-01T00:19:51.306Z,12.60
2018-09-01T00:20:51.253Z,12.67
2018-09-01T00:21:51.405Z,12.54
2018-09-01T00:22:51.180Z,12.43
2018-09-01T00:23:51.109Z,12.46
2018-09-01T00:24:51.065Z,12.43
2018-09-01T00:25:51.009Z,12.45
2018-09-01T00:26:50.965Z,12.46
2018-09-01T00:27:50.932Z,12.42
2018-09-01T00:28:50.869Z,12.46
2018-09-01T00:29:50.812Z,12.36
2018-09-01T00:30:50.791Z,12.31
2018-09-01T00:31:50.721Z,12.37
2018-09-01T00:32:50.667Z,12.39
2018-09-01T00:33:50.614Z,12.32
2018-09-01T00:34:50.601Z,12.36
2018-09-01T00:35:50.517Z,12.40
2018-09-01T00:36:50.463Z,12.36
2018-09-01T00:37:50.417Z,12.28
2018-09-01T00:38:50.405Z,12.27
2018-09-01T00:39:50.320Z,12.25
2018-09-01T00:40:50.271Z,12.03
2018-09-01T00:41:50.222Z,12.09
2018-09-01T00:42:50.173Z,12.02
2018-09-01T00:43:50.171Z,11.99
2018-09-01T00:44:50.074Z,11.91
2018-09-01T00:45:50.023Z,11.88
2018-09-01T00:46:49.974Z,11.83
2018-09-01T00:47:49.925Z,11.80
2018-09-01T00:48:49.908Z,11.75
2018-09-01T00:49:49.826Z,11.83
2018-09-01T00:50:49.775Z,11.81
2018-09-01T00:51:49.764Z,11.86
2018-09-01T00:52:49.677Z,11.88
2018-09-01T00:53:49.669Z,11.91
2018-09-01T00:54:49.580Z,11.87
2018-09-01T00:55:49.563Z,11.86
2018-09-01T00:56:49.479Z,11.83
2018-09-01T00:57:49.430Z,11.68
2018-09-01T00:58:49.403Z,11.66
2018-09-01T00:59:49.332Z,11.70
2018-09-01T01:00:49.284Z,11.66
2018-09-01T01:01:49.264Z,11.66
2018-09-01T01:02:49.188Z,11.59
2018-09-01T01:03:49.134Z,11.54
2018-09-01T01:04:49.113Z,11.57
2018-09-01T01:05:49.034Z,11.57
2018-09-01T01:06:48.989Z,11.44
2018-09-01T01:07:48.935Z,11.47
2018-09-01T01:08:48.884Z,11.45
2018-09-01T01:09:49.009Z,11.47
2018-09-01T01:10:48.789Z,11.45
2018-09-01T01:11:48.741Z,11.30
2018-09-01T01:12:48.686Z,11.25
2018-09-01T01:13:48.789Z,11.27
2018-09-01T01:14:48.611Z,11.12
2018-09-01T01:15:48.569Z,11.08
2018-09-01T01:16:48.706Z,11.04
2018-09-01T01:17:48.621Z,10.97
2018-09-01T01:18:48.385Z,10.92
2018-09-01T01:19:48.336Z,10.90
2018-09-01T01:20:48.287Z,10.86
2018-09-01T01:21:48.274Z,10.78
2018-09-01T01:22:48.187Z,10.72
2018-09-01T01:23:48.135Z,10.79
2018-09-01T01:24:48.089Z,10.81
2018-09-01T01:25:48.035Z,10.71
2018-09-01T01:26:48.237Z,10.68
2018-09-01T01:27:47.964Z,10.63
2018-09-01T01:28:47.884Z,10.69
2018-09-01T01:29:47.837Z,10.61
2018-09-01T01:30:47.786Z,10.61
2018-09-01T01:31:47.737Z,10.61
2018-09-01T01:32:47.706Z,10.69
2018-09-01T01:33:47.632Z,10.74
2018-09-01T01:34:47.591Z,10.75
2018-09-01T01:35:47.534Z,10.74
2018-09-01T01:36:47.485Z,10.75
2018-09-01T01:37:47.464Z,10.74
2018-09-01T01:38:47.382Z,10.78
2018-09-01T01:39:47.332Z,10.75
2018-09-01T01:40:47.554Z,10.76
2018-09-01T01:41:47.232Z,10.68
2018-09-01T01:42:47.222Z,10.60
2018-09-01T01:43:47.133Z,10.56
2018-09-01T01:44:47.080Z,10.57
2018-09-01T01:45:47.032Z,10.48
2018-09-01T01:46:46.980Z,10.49
2018-09-01T01:47:46.973Z,10.40
2018-09-01T01:48:46.878Z,10.42
2018-09-01T01:49:46.831Z,10.40
2018-09-01T01:50:46.782Z,10.40
2018-09-01T01:51:46.730Z,10.30
2018-09-01T01:52:46.864Z,10.26
2018-09-01T01:53:46.628Z,10.17
2018-09-01T01:54:46.576Z,10.16
2018-09-01T01:55:46.527Z,10.12
2018-09-01T01:56:46.507Z,10.09
2018-09-01T01:57:46.434Z,10.07
2018-09-01T01:58:46.662Z,9.99
2018-09-01T01:59:46.328Z,9.99
2018-09-01T02:00:46.276Z,9.98
2018-09-01T02:01:46.225Z,10.01
2018-09-01T02:02:46.181Z,10.05
2018-09-01T02:03:49.356Z,10.04
2018-09-01T02:04:46.072Z,10.04
2018-09-01T02:05:46.020Z,10.09
2018-09-01T02:06:45.972Z,10.05
2018-09-01T02:07:45.920Z,9.95
2018-09-01T02:08:45.900Z,9.94
2018-09-01T02:09:45.861Z,9.91
2018-09-01T02:10:45.764Z,9.89
2018-09-01T02:11:45.717Z,9.80
2018-09-01T02:12:45.666Z,9.87
2018-09-01T02:13:45.621Z,9.89
2018-09-01T02:14:45.613Z,9.94
2018-09-01T02:15:45.512Z,9.99
2018-09-01T02:16:45.464Z,9.83
2018-09-01T02:17:45.547Z,9.89
2018-09-01T02:18:45.361Z,9.86
2018-09-01T02:19:45.356Z,9.86
2018-09-01T02:20:45.260Z,9.82
2018-09-01T02:21:45.210Z,9.82
2018-09-01T02:22:45.158Z,9.74
2018-09-01T02:23:45.107Z,9.74
2018-09-01T02:24:45.089Z,9.82
2018-09-01T02:25:45.038Z,9.74
2018-09-01T02:26:44.962Z,9.82
2018-09-01T02:27:44.907Z,9.94
2018-09-01T02:28:44.852Z,9.80
2018-09-01T02:29:44.803Z,9.80
2018-09-01T02:30:44.790Z,9.82
2018-09-01T02:31:44.702Z,9.86
2018-09-01T02:32:44.648Z,9.77
2018-09-01T02:33:44.597Z,9.80
2018-09-01T02:34:44.549Z,9.72
2018-09-01T02:35:44.528Z,9.66
2018-09-01T02:36:44.444Z,9.69
2018-09-01T02:37:44.396Z,9.64
2018-09-01T02:38:44.344Z,9.62
2018-09-01T02:39:44.295Z,9.69
2018-09-01T02:40:44.272Z,9.58
2018-09-01T02:41:44.189Z,9.68
2018-09-01T02:42:44.137Z,9.56
2018-09-01T02:43:44.124Z,9.55
2018-09-01T02:44:44.038Z,9.62
2018-09-01T02:45:43.987Z,9.54
2018-09-01T02:46:43.940Z,9.56
2018-09-01T02:47:43.887Z,9.56
2018-09-01T02:48:43.866Z,9.59
2018-09-01T02:49:43.780Z,9.51
2018-09-01T02:50:43.734Z,9.62
2018-09-01T02:51:43.679Z,9.56
2018-09-01T02:52:43.664Z,9.56
2018-09-01T02:53:43.576Z,9.55
2018-09-01T02:54:43.683Z,9.59
2018-09-01T02:55:43.516Z,9.56
2018-09-01T02:56:43.424Z,9.51
2018-09-01T02:57:43.375Z,9.62
2018-09-01T02:58:43.505Z,9.54
2018-09-01T02:59:43.274Z,9.50
2018-09-01T03:00:43.251Z,9.59
2018-09-01T03:01:43.169Z,9.51
2018-09-01T03:02:43.118Z,9.40
2018-09-01T03:03:43.068Z,9.26
2018-09-01T03:04:43.045Z,9.28
2018-09-01T03:05:42.964Z,9.28
2018-09-01T03:06:42.952Z,9.22
2018-09-01T03:07:42.862Z,9.19
2018-09-01T03:08:42.813Z,9.19
2018-09-01T03:09:43.003Z,9.04
2018-09-01T03:10:42.708Z,9.04
2018-09-01T03:11:42.688Z,9.03
2018-09-01T03:12:42.602Z,9.08
2018-09-01T03:13:42.552Z,9.03
2018-09-01T03:14:42.534Z,9.02
2018-09-01T03:15:42.451Z,9.08
2018-09-01T03:16:42.402Z,9.11
2018-09-01T03:17:42.497Z,9.10
2018-09-01T03:18:42.339Z,9.08
2018-09-01T03:19:42.336Z,9.06
2018-09-01T03:20:42.250Z,9.03
2018-09-01T03:21:42.468Z,9.11
2018-09-01T03:22:42.122Z,9.04
2018-09-01T03:23:42.312Z,9.13
2018-09-01T03:24:42.040Z,9.11
2018-09-01T03:25:41.941Z,9.13
2018-09-01T03:26:41.885Z,9.08
2018-09-01T03:27:41.865Z,9.19
2018-09-01T03:28:41.783Z,9.16
2018-09-01T03:29:41.730Z,9.10
2018-09-01T03:30:41.709Z,9.03
2018-09-01T03:31:41.629Z,8.95
2018-09-01T03:32:41.578Z,8.91
2018-09-01T03:33:41.530Z,8.91
2018-09-01T03:34:41.473Z,8.88
2018-09-01T03:35:41.461Z,8.84
2018-09-01T03:36:41.368Z,8.76
2018-09-01T03:37:41.321Z,8.79
2018-09-01T03:38:41.267Z,8.76
2018-09-01T03:39:41.218Z,8.70
2018-09-01T03:40:41.197Z,8.82
2018-09-01T03:41:41.112Z,8.76
2018-09-01T03:42:41.060Z,8.69
2018-09-01T03:43:41.010Z,8.78
2018-09-01T03:44:40.961Z,8.81
2018-09-01T03:45:40.936Z,8.84
2018-09-01T03:46:40.860Z,8.76
2018-09-01T03:47:40.804Z,8.92
2018-09-01T03:48:40.752Z,8.81
2018-09-01T03:49:40.701Z,8.79
2018-09-01T03:50:40.679Z,8.84
2018-09-01T03:51:40.627Z,8.81
2018-09-01T03:52:40.543Z,8.84
2018-09-01T03:53:40.492Z,8.85
2018-09-01T03:54:40.441Z,8.78
2018-09-01T03:55:40.388Z,8.67
2018-09-01T03:56:40.369Z,8.67
2018-09-01T03:57:40.316Z,8.76
2018-09-01T03:58:40.235Z,8.69
2018-09-01T03:59:40.230Z,8.71
2018-09-01T04:00:40.133Z,8.74
2018-09-01T04:01:40.078Z,8.73
2018-09-01T04:02:40.063Z,8.73
2018-09-01T04:03:40.017Z,8.64
2018-09-01T04:04:39.924Z,8.70
2018-09-01T04:05:39.875Z,8.66
2018-09-01T04:06:39.822Z,8.70
2018-09-01T04:07:39.769Z,8.69
2018-09-01T04:08:39.751Z,8.67
2018-09-01T04:09:39.665Z,8.64
2018-09-01T04:10:39.647Z,8.69
2018-09-01T04:11:39.562Z,8.69
2018-09-01T04:12:39.509Z,8.67
2018-09-01T04:13:39.458Z,8.69
2018-09-01T04:14:39.446Z,8.70
2018-09-01T04:15:39.355Z,8.61
2018-09-01T04:16:39.302Z,8.71
2018-09-01T04:17:39.251Z,8.73
2018-09-01T04:18:39.203Z,8.60
2018-09-01T04:19:39.185Z,8.69
2018-09-01T04:20:39.097Z,8.70
2018-09-01T04:21:39.047Z,8.70
2018-09-01T04:22:38.991Z,8.71
2018-09-01T04:23:38.938Z,8.70
2018-09-01T04:24:38.923Z,8.66
2018-09-01T04:25:38.870Z,8.64
2018-09-01T04:26:38.787Z,8.70
2018-09-01T04:27:38.733Z,8.70
2018-09-01T04:28:38.684Z,8.67
2018-09-01T04:29:38.628Z,8.61
2018-09-01T04:30:38.625Z,8.52
2018-09-01T04:31:38.525Z,8.45
2018-09-01T04:32:38.472Z,8.38
2018-09-01T04:33:38.421Z,8.36
2018-09-01T04:34:38.368Z,8.30
2018-09-01T04:35:38.349Z,8.33
2018-09-01T04:36:38.264Z,8.42
2018-09-01T04:37:38.214Z,8.42
2018-09-01T04:38:38.162Z,8.45
2018-09-01T04:39:38.108Z,8.38
2018-09-01T04:40:38.089Z,8.44
2018-09-01T04:41:38.006Z,8.31
2018-09-01T04:42:37.986Z,8.34
2018-09-01T04:43:37.906Z,8.37
2018-09-01T04:44:37.850Z,8.31
2018-09-01T04:45:37.801Z,8.31
2018-09-01T04:46:37.743Z,8.30
2018-09-01T04:47:37.727Z,8.23
2018-09-01T04:48:37.640Z,8.24
2018-09-01T04:49:37.626Z,8.23
2018-09-01T04:50:37.567Z,8.23
2018-09-01T04:51:37.485Z,8.23
2018-09-01T04:52:37.471Z,8.33
2018-09-01T04:53:37.384Z,8.36
2018-09-01T04:54:37.332Z,8.36
2018-09-01T04:55:37.275Z,8.36
2018-09-01T04:56:37.222Z,8.45
2018-09-01T04:57:37.219Z,8.42
2018-09-01T04:58:37.119Z,8.52
2018-09-01T04:59:37.070Z,8.51
2018-09-01T05:00:37.018Z,8.49
2018-09-01T05:01:36.964Z,8.51
2018-09-01T05:02:36.943Z,8.46
2018-09-01T05:03:36.860Z,8.46
2018-09-01T05:04:36.807Z,8.51
2018-09-01T05:05:36.754Z,8.49
2018-09-01T05:06:36.735Z,8.42
2018-09-01T05:07:36.651Z,8.42
2018-09-01T05:08:36.605Z,8.33
2018-09-01T05:09:36.549Z,8.36
2018-09-01T05:10:36.493Z,8.30
2018-09-01T05:11:36.481Z,8.37
2018-09-01T05:12:36.390Z,8.41
2018-09-01T05:13:36.337Z,8.33
2018-09-01T05:14:36.292Z,8.37
2018-09-01T05:15:36.237Z,8.42
2018-09-01T05:16:36.215Z,8.48
2018-09-01T05:17:36.131Z,8.51
2018-09-01T05:18:36.078Z,8.45
2018-09-01T05:19:36.057Z,8.42
2018-09-01T05:20:35.971Z,8.31
2018-09-01T05:21:35.923Z,8.31
2018-09-01T05:22:35.902Z,8.46
2018-09-01T05:23:35.816Z,8.45
2018-09-01T05:24:35.765Z,8.51
2018-09-01T05:25:35.722Z,8.51
2018-09-01T05:26:35.662Z,8.53
2018-09-01T05:27:35.643Z,8.64
2018-09-01T05:28:35.563Z,8.61
2018-09-01T05:29:35.505Z,8.64
2018-09-01T05:30:35.455Z,8.63
2018-09-01T05:31:35.435Z,8.61
2018-09-01T05:32:35.377Z,8.55
2018-09-01T05:33:35.295Z,8.51
2018-09-01T05:34:35.246Z,8.53
2018-09-01T05:35:35.192Z,8.51
2018-09-01T05:36:35.181Z,8.56
2018-09-01T05:37:35.129Z,8.56
2018-09-01T05:38:35.037Z,8.63
2018-09-01T05:39:34.988Z,8.64
2018-09-01T05:40:34.932Z,8.69
2018-09-01T05:41:34.879Z,8.69
2018-09-01T05:42:34.865Z,8.82
2018-09-01T05:43:34.782Z,8.81
2018-09-01T05:44:34.722Z,8.91
2018-09-01T05:45:34.902Z,8.97
2018-09-01T05:46:34.618Z,8.89
2018-09-01T05:47:34.600Z,9.02
2018-09-01T05:48:34.547Z,9.04
2018-09-01T05:49:34.467Z,9.04
2018-09-01T05:50:34.413Z,9.10
2018-09-01T05:51:34.360Z,9.10
2018-09-01T05:52:34.305Z,9.08
2018-09-01T05:53:34.287Z,9.14
2018-09-01T05:54:34.203Z,9.16
2018-09-01T05:55:34.151Z,9.18
2018-09-01T05:56:34.100Z,9.18
2018-09-01T05:57:34.046Z,9.14
2018-09-01T05:58:34.027Z,9.19
2018-09-01T05:59:33.947Z,9.14
2018-09-01T06:00:33.905Z,9.21
2018-09-01T06:01:33.840Z,9.26
2018-09-01T06:02:33.788Z,9.23
2018-09-01T06:03:33.771Z,9.36
2018-09-01T06:04:33.684Z,9.43
2018-09-01T06:05:33.665Z,9.41
2018-09-01T06:06:33.583Z,9.54
2018-09-01T06:07:33.531Z,9.59
2018-09-01T06:08:33.476Z,9.66
2018-09-01T06:09:33.429Z,9.74
2018-09-01T06:10:33.406Z,9.77
2018-09-01T06:11:33.323Z,9.80
2018-09-01T06:12:33.269Z,9.83
2018-09-01T06:13:33.252Z,9.74
2018-09-01T06:14:33.171Z,9.80
2018-09-01T06:15:33.116Z,9.91
2018-09-01T06:16:33.063Z,9.97
2018-09-01T06:17:33.150Z,9.92
2018-09-01T06:18:32.961Z,9.94
2018-09-01T06:19:32.908Z,10.04
2018-09-01T06:20:32.863Z,10.05
2018-09-01T06:21:32.808Z,10.04
2018-09-01T06:22:32.795Z,10.20
2018-09-01T06:23:32.706Z,10.19
2018-09-01T06:24:32.652Z,10.19
2018-09-01T06:25:32.599Z,10.26
2018-09-01T06:26:32.551Z,10.30
2018-09-01T06:27:32.540Z,10.26
2018-09-01T06:28:32.447Z,10.30
2018-09-01T06:29:32.396Z,10.38
2018-09-01T06:30:32.344Z,10.56
2018-09-01T06:31:32.293Z,10.53
2018-09-01T06:32:32.284Z,10.53
2018-09-01T06:33:32.188Z,10.60
2018-09-01T06:34:32.138Z,10.63
2018-09-01T06:35:32.089Z,10.63
2018-09-01T06:36:32.037Z,10.61
2018-09-01T06:37:32.140Z,10.69
2018-09-01T06:38:31.934Z,10.69
2018-09-01T06:39:31.883Z,10.81
2018-09-01T06:40:31.831Z,10.76
2018-09-01T06:41:31.778Z,10.84
2018-09-01T06:42:31.771Z,10.78
2018-09-01T06:43:31.678Z,10.76
2018-09-01T06:44:31.634Z,10.78
2018-09-01T06:45:31.577Z,10.86
2018-09-01T06:46:31.533Z,10.87
2018-09-01T06:47:31.526Z,10.87
2018-09-01T06:48:31.428Z,10.82
2018-09-01T06:49:31.374Z,10.82
2018-09-01T06:50:31.323Z,10.86
2018-09-01T06:51:31.317Z,10.86
2018-09-01T06:52:31.252Z,10.87
2018-09-01T06:53:31.169Z,10.96
2018-09-01T06:54:31.120Z,10.87
2018-09-01T06:55:31.100Z,10.90
2018-09-01T06:56:31.016Z,10.96
2018-09-01T06:57:30.968Z,11.02
2018-09-01T06:58:30.919Z,11.07
2018-09-01T06:59:30.864Z,11.14
2018-09-01T07:00:30.850Z,11.17
2018-09-01T07:01:30.796Z,11.19
2018-09-01T07:02:30.715Z,11.26
2018-09-01T07:03:30.662Z,11.30
2018-09-01T07:04:30.614Z,11.32
2018-09-01T07:05:30.565Z,11.37
2018-09-01T07:06:30.550Z,11.40
2018-09-01T07:07:30.461Z,11.45
2018-09-01T07:08:30.407Z,11.44
2018-09-01T07:09:30.364Z,11.47
2018-09-01T07:10:30.308Z,11.57
2018-09-01T07:11:30.301Z,11.57
2018-09-01T07:12:30.206Z,11.62
2018-09-01T07:13:30.155Z,11.63
2018-09-01T07:14:30.107Z,11.63
2018-09-01T07:15:30.059Z,11.72
2018-09-01T07:16:30.036Z,11.78
2018-09-01T07:17:29.954Z,11.83
2018-09-01T07:18:29.902Z,11.90
2018-09-01T07:19:29.854Z,11.90
2018-09-01T07:20:29.835Z,11.87
2018-09-01T07:21:29.754Z,12.04
2018-09-01T07:22:29.705Z,12.00
2018-09-01T07:23:29.653Z,12.06
2018-09-01T07:24:29.599Z,11.97
2018-09-01T07:25:29.584Z,12.13
2018-09-01T07:26:29.504Z,12.13
2018-09-01T07:27:29.491Z,12.18
2018-09-01T07:28:29.398Z,12.15
2018-09-01T07:29:29.352Z,12.18
2018-09-01T07:30:29.451Z,12.20
2018-09-01T07:31:29.640Z,12.24
2018-09-01T07:32:29.230Z,12.22
2018-09-01T07:33:29.151Z,12.36
2018-09-01T07:34:29.148Z,12.35
2018-09-01T07:35:29.048Z,12.40
2018-09-01T07:36:28.998Z,12.46
2018-09-01T07:37:28.949Z,12.42
2018-09-01T07:38:28.902Z,12.57
2018-09-01T07:39:28.902Z,12.67
2018-09-01T07:40:28.802Z,12.61
2018-09-01T07:41:28.749Z,12.68
2018-09-01T07:42:28.701Z,12.75
2018-09-01T07:43:28.652Z,12.79
2018-09-01T07:44:28.636Z,12.90
2018-09-01T07:45:28.561Z,12.91
2018-09-01T07:46:28.501Z,13.08
2018-09-01T07:47:28.485Z,13.03
2018-09-01T07:48:28.400Z,13.16
2018-09-01T07:49:28.351Z,13.18
2018-09-01T07:50:28.335Z,13.30
2018-09-01T07:51:28.255Z,13.31
2018-09-01T07:52:28.204Z,13.42
2018-09-01T07:53:28.188Z,13.47
2018-09-01T07:54:28.169Z,13.57
2018-09-01T07:55:28.056Z,13.54
2018-09-01T07:56:28.005Z,13.57
2018-09-01T07:57:27.955Z,13.75
2018-09-01T07:58:27.906Z,13.81
2018-09-01T07:59:27.888Z,13.95
2018-09-01T08:00:27.841Z,14.12
2018-09-01T08:01:27.769Z,14.44
2018-09-01T08:02:27.711Z,14.79
2018-09-01T08:03:27.662Z,15.19
2018-09-01T08:04:27.611Z,15.91
2018-09-01T08:05:27.595Z,16.60
2018-09-01T08:06:27.514Z,17.24
2018-09-01T08:07:27.569Z,17.79
2018-09-01T08:08:27.419Z,18.35
2018-09-01T08:09:27.371Z,18.81
2018-09-01T08:10:27.325Z,19.31
2018-09-01T08:11:27.276Z,19.82
2018-09-01T08:12:27.269Z,20.24
2018-09-01T08:13:27.179Z,20.55
2018-09-01T08:14:27.138Z,20.87
2018-09-01T08:15:27.089Z,21.32
2018-09-01T08:16:27.046Z,21.58
2018-09-01T08:17:27.041Z,21.69
2018-09-01T08:18:26.952Z,22.02
2018-09-01T08:19:26.907Z,22.30
2018-09-01T08:20:26.862Z,22.48
2018-09-01T08:21:26.817Z,22.84
2018-09-01T08:22:26.813Z,23.15
2018-09-01T08:23:26.733Z,23.40
2018-09-01T08:24:26.689Z,23.73
2018-09-01T08:25:26.641Z,24.05
2018-09-01T08:26:26.602Z,24.38
2018-09-01T08:27:26.599Z,24.54
2018-09-01T08:28:26.517Z,24.86
2018-09-01T08:29:26.474Z,24.96
2018-09-01T08:30:26.429Z,24.96
2018-09-01T08:31:26.393Z,25.38
2018-09-01T08:32:26.378Z,25.48
2018-09-01T08:33:26.362Z,25.51
2018-09-01T08:34:26.289Z,25.84
2018-09-01T08:35:26.254Z,26.09
2018-09-01T08:36:26.181Z,26.31
2018-09-01T08:37:26.139Z,26.56
2018-09-01T08:38:26.099Z,26.73
2018-09-01T08:39:26.063Z,26.74
2018-09-01T08:40:26.051Z,26.85
2018-09-01T08:41:25.977Z,26.92
2018-09-01T08:42:25.936Z,26.99
2018-09-01T08:43:25.896Z,27.00
2018-09-01T08:44:25.855Z,27.21
2018-09-01T08:45:25.906Z,27.21
2018-09-01T08:46:25.806Z,27.27
2018-09-01T08:47:25.735Z,27.27
2018-09-01T08:48:25.700Z,27.40
2018-09-01T08:49:25.738Z,27.42
2018-09-01T08:50:25.616Z,27.47
2018-09-01T08:51:25.693Z,27.78
2018-09-01T08:52:25.535Z,27.98
2018-09-01T08:53:25.498Z,28.12
2018-09-01T08:54:25.458Z,27.96
2018-09-01T08:55:25.461Z,27.92
2018-09-01T08:56:25.390Z,27.96
2018-09-01T08:57:25.338Z,28.12
2018-09-01T08:58:25.324Z,28.07
2018-09-01T08:59:25.264Z,28.14
2018-09-01T09:00:25.251Z,28.29
2018-09-01T09:01:25.177Z,28.19
2018-09-01T09:02:25.238Z,28.12
2018-09-01T09:03:25.164Z,27.93
2018-09-01T09:04:25.113Z,27.85
2018-09-01T09:05:25.072Z,27.82
2018-09-01T09:06:24.981Z,27.93
2018-09-01T09:07:24.975Z,27.74
2018-09-01T09:08:24.915Z,27.71
2018-09-01T09:09:24.872Z,27.70
2018-09-01T09:10:24.824Z,27.42
2018-09-01T09:11:24.846Z,27.54
2018-09-01T09:12:24.779Z,27.58
2018-09-01T09:13:24.708Z,27.83
2018-09-01T09:14:24.670Z,27.87
2018-09-01T09:15:24.629Z,27.63
2018-09-01T09:16:24.589Z,27.51
2018-09-01T09:17:24.580Z,27.17
2018-09-01T09:18:24.590Z,27.17
2018-09-01T09:19:24.473Z,27.26
2018-09-01T09:20:24.472Z,26.75
2018-09-01T09:21:24.394Z,26.03
2018-09-01T09:22:24.357Z,25.58
2018-09-01T09:23:24.317Z,25.25
2018-09-01T09:24:24.276Z,25.01
2018-09-01T09:25:24.269Z,24.70
2018-09-01T09:26:24.196Z,24.51
2018-09-01T09:27:24.161Z,24.33
2018-09-01T09:28:24.165Z,24.11
2018-09-01T09:29:24.080Z,23.68
2018-09-01T09:30:24.040Z,23.43
2018-09-01T09:31:23.998Z,23.06
2018-09-01T09:32:23.956Z,23.21
2018-09-01T09:33:23.948Z,23.31
2018-09-01T09:34:23.936Z,23.63
2018-09-01T09:35:23.842Z,24.16
2018-09-01T09:36:23.797Z,24.32
2018-09-01T09:37:23.789Z,24.21
2018-09-01T09:38:23.716Z,24.03
2018-09-01T09:39:23.678Z,24.20
2018-09-01T09:40:23.635Z,24.43
2018-09-01T09:41:23.596Z,24.60
2018-09-01T09:42:23.607Z,24.54
2018-09-01T09:43:23.515Z,24.47
2018-09-01T09:44:23.474Z,24.55
2018-09-01T09:45:23.432Z,24.40
2018-09-01T09:46:23.396Z,24.16
2018-09-01T09:47:23.403Z,23.98
2018-09-01T09:48:23.313Z,24.10
2018-09-01T09:49:23.273Z,24.29
2018-09-01T09:50:23.237Z,24.66
2018-09-01T09:51:23.205Z,24.89
2018-09-01T09:52:23.202Z,24.93
2018-09-01T09:53:23.118Z,25.35
2018-09-01T09:54:23.075Z,25.41
2018-09-01T09:55:23.033Z,25.11
2018-09-01T09:56:22.992Z,24.66
2018-09-01T09:57:22.980Z,24.43
2018-09-01T09:58:23.071Z,24.14
2018-09-01T09:59:22.912Z,24.14
2018-09-01T10:00:22.827Z,24.32
2018-09-01T10:01:22.788Z,24.40
2018-09-01T10:02:22.756Z,24.54
2018-09-01T10:03:22.707Z,24.69
2018-09-01T10:04:22.700Z,25.04
2018-09-01T10:05:22.634Z,25.41
2018-09-01T10:06:22.587Z,25.90
2018-09-01T10:07:22.546Z,26.10
2018-09-01T10:08:22.559Z,26.18
2018-09-01T10:09:22.465Z,26.23
2018-09-01T10:10:22.432Z,26.51
2018-09-01T10:11:22.386Z,26.65
2018-09-01T10:12:22.346Z,26.81
2018-09-01T10:13:22.352Z,26.60
2018-09-01T10:14:22.268Z,26.36
2018-09-01T10:15:22.227Z,26.02
2018-09-01T10:16:22.185Z,25.78
2018-09-01T10:17:22.153Z,25.60
2018-09-01T10:18:22.142Z,25.69
2018-09-01T10:19:22.068Z,25.58
2018-09-01T10:20:22.135Z,25.43
2018-09-01T10:21:22.020Z,25.25
2018-09-01T10:22:21.949Z,25.03
2018-09-01T10:23:21.908Z,24.74
2018-09-01T10:24:21.867Z,24.48
2018-09-01T10:25:21.860Z,24.21
2018-09-01T10:26:21.787Z,24.33
2018-09-01T10:27:21.750Z,24.57
2018-09-01T10:28:21.739Z,24.85
2018-09-01T10:29:21.675Z,25.14
2018-09-01T10:30:21.628Z,25.01
2018-09-01T10:31:21.629Z,24.76
2018-09-01T10:32:21.547Z,24.61
2018-09-01T10:33:21.507Z,24.42
2018-09-01T10:34:21.467Z,24.18
2018-09-01T10:35:21.428Z,23.88
2018-09-01T10:36:21.420Z,23.71
2018-09-01T10:37:21.346Z,23.65
2018-09-01T10:38:21.330Z,23.63
2018-09-01T10:39:21.267Z,23.84
2018-09-01T10:40:21.227Z,24.35
2018-09-01T10:41:21.218Z,24.74
2018-09-01T10:42:21.188Z,24.99
2018-09-01T10:43:21.109Z,24.93
2018-09-01T10:44:21.064Z,24.80
2018-09-01T10:45:21.027Z,24.57
2018-09-01T10:46:21.000Z,24.28
2018-09-01T10:47:20.976Z,24.17
2018-09-01T10:48:20.912Z,23.96
2018-09-01T10:49:20.862Z,23.87
2018-09-01T10:50:20.822Z,23.69
2018-09-01T10:51:20.783Z,23.63
2018-09-01T10:52:20.778Z,23.62
2018-09-01T10:53:20.704Z,23.61
2018-09-01T10:54:20.663Z,23.50
2018-09-01T10:55:20.626Z,23.28
2018-09-01T10:56:20.612Z,23.20
2018-09-01T10:57:20.541Z,23.20
2018-09-01T10:58:20.499Z,23.21
2018-09-01T10:59:20.573Z,23.06
2018-09-01T11:00:20.417Z,23.06
2018-09-01T11:01:20.377Z,23.00
2018-09-01T11:02:20.337Z,22.96
2018-09-01T11:03:20.298Z,22.91
2018-09-01T11:04:20.287Z,22.91
2018-09-01T11:05:20.223Z,22.85
2018-09-01T11:06:20.173Z,22.87
2018-09-01T11:07:20.131Z,22.81
2018-09-01T11:08:20.090Z,22.78
2018-09-01T11:09:20.086Z,22.70
2018-09-01T11:10:20.012Z,22.93
2018-09-01T11:11:19.967Z,23.21
2018-09-01T11:12:19.926Z,23.77
2018-09-01T11:13:19.887Z,24.26
2018-09-01T11:14:19.879Z,24.58
2018-09-01T11:15:19.802Z,24.96
2018-09-01T11:16:19.815Z,25.32
2018-09-01T11:17:19.720Z,25.59
2018-09-01T11:18:19.682Z,25.77
2018-09-01T11:19:19.645Z,25.87
2018-09-01T11:20:19.674Z,25.69
2018-09-01T11:21:19.591Z,25.68
2018-09-01T11:22:19.554Z,25.48
2018-09-01T11:23:19.483Z,25.40
2018-09-01T11:24:19.438Z,25.25
2018-09-01T11:25:19.399Z,25.14
2018-09-01T11:26:19.358Z,24.99
2018-09-01T11:27:19.376Z,24.68
2018-09-01T11:28:19.280Z,24.53
2018-09-01T11:29:19.241Z,24.40
2018-09-01T11:30:19.197Z,24.30
2018-09-01T11:31:19.158Z,24.32
2018-09-01T11:32:19.150Z,24.23
2018-09-01T11:33:19.079Z,24.03
2018-09-01T11:34:19.039Z,23.88
2018-09-01T11:35:18.996Z,23.88
2018-09-01T11:36:18.954Z,23.77
2018-09-01T11:37:18.951Z,23.69
2018-09-01T11:38:18.878Z,23.47
2018-09-01T11:39:18.834Z,23.61
2018-09-01T11:40:18.854Z,23.78
2018-09-01T11:41:18.752Z,24.20
2018-09-01T11:42:18.724Z,24.53
2018-09-01T11:43:18.874Z,24.86
2018-09-01T11:44:18.631Z,25.07
2018-09-01T11:45:18.593Z,25.14
2018-09-01T11:46:18.552Z,24.92
2018-09-01T11:47:18.512Z,24.81
2018-09-01T11:48:18.508Z,24.60
2018-09-01T11:49:18.430Z,24.42
2018-09-01T11:50:18.390Z,24.36
2018-09-01T11:51:18.349Z,24.20
2018-09-01T11:52:18.328Z,24.01
2018-09-01T11:53:18.418Z,23.81
2018-09-01T11:54:18.227Z,23.41
2018-09-01T11:55:18.191Z,23.34
2018-09-01T11:56:18.148Z,23.32
2018-09-01T11:57:18.109Z,23.34
2018-09-01T11:58:18.124Z,23.24
2018-09-01T11:59:18.032Z,23.25
2018-09-01T12:00:17.984Z,23.51
2018-09-01T12:01:17.942Z,23.76
2018-09-01T12:02:17.958Z,23.88
2018-09-01T12:03:17.862Z,24.21
2018-09-01T12:04:17.823Z,24.38
2018-09-01T12:05:17.783Z,24.63
2018-09-01T12:06:17.758Z,24.98
2018-09-01T12:07:17.737Z,25.10
2018-09-01T12:08:17.690Z,24.98
2018-09-01T12:09:17.663Z,25.03
2018-09-01T12:10:17.583Z,24.95
2018-09-01T12:11:17.541Z,24.86
2018-09-01T12:12:17.498Z,24.66
2018-09-01T12:13:17.495Z,24.51
2018-09-01T12:14:17.418Z,24.26
2018-09-01T12:15:17.423Z,24.26
2018-09-01T12:16:17.334Z,24.18
2018-09-01T12:17:17.378Z,24.20
2018-09-01T12:18:17.255Z,24.29
2018-09-01T12:19:17.215Z,24.47
2018-09-01T12:20:17.172Z,24.60
2018-09-01T12:21:17.132Z,24.53
2018-09-01T12:22:17.178Z,24.76
2018-09-01T12:23:17.054Z,24.68
2018-09-01T12:24:17.012Z,24.69
2018-09-01T12:25:16.972Z,24.69
2018-09-01T12:26:16.929Z,24.60
2018-09-01T12:27:16.925Z,24.50
2018-09-01T12:28:17.042Z,24.36
2018-09-01T12:29:16.806Z,24.30
2018-09-01T12:30:16.768Z,24.16
2018-09-01T12:31:16.727Z,24.10
2018-09-01T12:32:16.688Z,23.88
2018-09-01T12:33:16.675Z,23.76
2018-09-01T12:34:16.604Z,23.50
2018-09-01T12:35:16.601Z,23.36
2018-09-01T12:36:16.607Z,23.36
2018-09-01T12:37:16.528Z,23.47
2018-09-01T12:38:16.445Z,23.46
2018-09-01T12:39:16.404Z,23.58
2018-09-01T12:40:16.364Z,23.84
2018-09-01T12:41:16.369Z,24.20
2018-09-01T12:42:16.280Z,24.47
2018-09-01T12:43:16.237Z,24.80
2018-09-01T12:44:16.199Z,24.99
2018-09-01T12:45:16.160Z,25.22
2018-09-01T12:46:16.150Z,25.06
2018-09-01T12:47:16.074Z,25.26
2018-09-01T12:48:16.069Z,25.55
2018-09-01T12:49:16.000Z,25.68
2018-09-01T12:50:15.982Z,25.59
2018-09-01T12:51:15.915Z,25.55
2018-09-01T12:52:15.873Z,25.48
2018-09-01T12:53:16.047Z,25.31
2018-09-01T12:54:15.791Z,25.35
2018-09-01T12:55:15.753Z,25.13
2018-09-01T12:56:15.711Z,25.08
2018-09-01T12:57:15.672Z,24.96
2018-09-01T12:58:15.682Z,24.95
2018-09-01T12:59:15.591Z,24.91
2018-09-01T13:00:15.554Z,25.07